Página principal
METAR-TAF:

METAR-TAF

Aeroportos :

Conacri, Guiné

latitude: 09-34N, longitude: 013-37W, altura: 26 m

Observação actual do tempo

O boletim foi feito há 1 hora e 10 minutos, às 14:00 UTC
Vento 6 kt de noroeste
Temperatura 30°C
Humidade 59%
Pressão 1011 hPa
Visibilidade: 5000 m
Nuvens fragmentadasa uma altura de 1500 ft
bruma

METAR: GUCY 161400Z 32006KT 5000 HZ BKN015 30/21 Q1011 NOSIG

Hora: 15:10 (15:10 UTC)

Previsão

O boletim foi feito há 4 horas e 10 minutos, às 11:00 UTC
Previsão válida de 16 às 12 UTC a 17 às 18 UTC
Vento 6 kt de oeste
Visibilidade: 5000 m
Nuvens dispersasa uma altura de 12000 ft
bruma
Tornando-se
de 16 às 20 UTC a 16 às 23 UTC
Vento 6 kt de nor-noroeste
Visibilidade: 4000 m
bruma
Temporariamente
de 17 às 04 UTC a 17 às 09 UTC
Visibilidade: 2500 m
Poucas nuvensa uma altura de 1500 ft
neblina

TAF: GUCY 161100Z 1612/1718 28006KT 5000 HZ SCT120 BECMG 1620/1623 34006KT 4000 HZ NSC TEMPO 1704/1709 2500 BR FEW015

Observações e previsões do tempo de mais de 4000 aeroportos (mensagens METAR e TAF).

As estações disponíveis são os pontos amarelos e vermelhos sobre o mapa.

Mova o rato sobre o mapa para ver o nome da estação.

Depois clique no ponto para visualizar as observações e previsões meteorológicas.

Para alterar o mapa : clique nos botões verdes com uma cruz preta para aumentar o zoom; no botão verde com uma pitada de zoom; ou nas setas verdes para mapas adjacentes.


METAR-TAF: